createdAt,value
2022-09-07T00:00:45.140Z,0.00
2022-09-07T00:01:46.170Z,0.00
2022-09-07T00:02:45.173Z,0.00
2022-09-07T00:03:45.134Z,0.00
2022-09-07T00:04:45.167Z,0.00
2022-09-07T00:05:45.086Z,0.00
2022-09-07T00:06:45.077Z,0.00
2022-09-07T00:07:45.070Z,0.00
2022-09-07T00:08:45.079Z,0.00
2022-09-07T00:09:45.051Z,0.00
2022-09-07T00:10:45.048Z,0.00
2022-09-07T00:11:45.033Z,0.00
2022-09-07T00:12:45.029Z,0.00
2022-09-07T00:13:45.031Z,0.00
2022-09-07T00:14:45.033Z,0.00
2022-09-07T00:15:45.030Z,0.00
2022-09-07T00:16:44.984Z,0.00
2022-09-07T00:17:44.968Z,0.00
2022-09-07T00:18:46.244Z,0.00
2022-09-07T00:19:45.955Z,0.00
2022-09-07T00:20:44.972Z,0.00
2022-09-07T00:21:44.948Z,0.00
2022-09-07T00:22:44.921Z,0.00
2022-09-07T00:23:44.915Z,0.00
2022-09-07T00:24:44.920Z,0.00
2022-09-07T00:25:44.903Z,0.00
2022-09-07T00:26:44.907Z,0.00
2022-09-07T00:27:44.888Z,0.00
2022-09-07T00:28:44.864Z,0.00
2022-09-07T00:29:44.877Z,0.00
2022-09-07T00:30:44.858Z,0.00
2022-09-07T00:31:44.929Z,0.00
2022-09-07T00:32:44.826Z,0.00
2022-09-07T00:33:44.816Z,0.00
2022-09-07T00:34:44.822Z,0.00
2022-09-07T00:35:44.809Z,0.00
2022-09-07T00:36:44.793Z,0.00
2022-09-07T00:37:44.798Z,0.00
2022-09-07T00:38:44.768Z,0.00
2022-09-07T00:39:44.881Z,0.00
2022-09-07T00:40:44.753Z,0.00
2022-09-07T00:41:44.744Z,0.00
2022-09-07T00:42:44.750Z,0.00
2022-09-07T00:43:44.722Z,0.00
2022-09-07T00:44:44.711Z,0.00
2022-09-07T00:45:44.698Z,0.00
2022-09-07T00:46:44.744Z,0.00
2022-09-07T00:47:44.703Z,0.00
2022-09-07T00:48:44.681Z,0.00
2022-09-07T00:49:44.651Z,0.00
2022-09-07T00:50:44.650Z,0.00
2022-09-07T00:51:44.648Z,0.00
2022-09-07T00:52:44.631Z,0.00
2022-09-07T00:53:44.656Z,0.00
2022-09-07T00:54:44.644Z,0.00
2022-09-07T00:55:44.602Z,0.00
2022-09-07T00:56:44.599Z,0.00
2022-09-07T00:57:44.589Z,0.00
2022-09-07T00:58:44.583Z,0.00
2022-09-07T00:59:44.578Z,0.00
2022-09-07T01:00:44.556Z,0.00
2022-09-07T01:01:44.656Z,0.00
2022-09-07T01:02:44.646Z,0.00
2022-09-07T01:03:44.552Z,0.00
2022-09-07T01:04:44.546Z,0.00
2022-09-07T01:05:44.504Z,0.00
2022-09-07T01:06:44.517Z,0.00
2022-09-07T01:07:44.540Z,0.00
2022-09-07T01:08:44.499Z,0.00
2022-09-07T01:09:44.470Z,0.00
2022-09-07T01:10:44.464Z,0.00
2022-09-07T01:11:44.456Z,0.00
2022-09-07T01:12:44.442Z,0.00
2022-09-07T01:13:44.441Z,0.00
2022-09-07T01:14:45.425Z,0.00
2022-09-07T01:15:44.438Z,0.00
2022-09-07T01:16:44.423Z,0.00
2022-09-07T01:17:44.384Z,0.00
2022-09-07T01:18:44.380Z,0.00
2022-09-07T01:19:44.404Z,0.00
2022-09-07T01:20:44.368Z,0.00
2022-09-07T01:21:44.358Z,0.00
2022-09-07T01:22:44.345Z,0.00
2022-09-07T01:23:44.329Z,0.00
2022-09-07T01:24:44.366Z,0.00
2022-09-07T01:25:44.333Z,0.00
2022-09-07T01:27:16.212Z,0.00
2022-09-07T01:27:44.291Z,0.00
2022-09-07T01:28:44.275Z,0.00
2022-09-07T01:29:44.291Z,0.00
2022-09-07T01:30:44.306Z,0.00
2022-09-07T01:31:44.269Z,0.00
2022-09-07T01:32:44.233Z,0.00
2022-09-07T01:33:44.220Z,0.00
2022-09-07T01:34:44.227Z,0.00
2022-09-07T01:35:44.224Z,0.00
2022-09-07T01:36:44.224Z,0.00
2022-09-07T01:37:44.193Z,0.00
2022-09-07T01:38:44.192Z,0.00
2022-09-07T01:39:44.206Z,0.00
2022-09-07T01:40:44.176Z,0.00
2022-09-07T01:41:44.188Z,0.00
2022-09-07T01:42:44.143Z,0.00
2022-09-07T01:43:44.131Z,0.00
2022-09-07T01:44:44.122Z,0.00
2022-09-07T01:45:44.116Z,0.00
2022-09-07T01:46:44.199Z,0.00
2022-09-07T01:47:44.131Z,0.00
2022-09-07T01:48:44.081Z,0.00
2022-09-07T01:49:44.076Z,0.00
2022-09-07T01:50:44.070Z,0.00
2022-09-07T01:51:44.073Z,0.00
2022-09-07T01:52:44.049Z,0.00
2022-09-07T01:53:44.026Z,0.00
2022-09-07T01:54:44.023Z,0.00
2022-09-07T01:55:44.013Z,0.00
2022-09-07T01:56:44.018Z,0.00
2022-09-07T01:57:44.000Z,0.00
2022-09-07T01:58:43.990Z,0.00
2022-09-07T01:59:43.979Z,0.00
2022-09-07T02:00:43.989Z,0.00
2022-09-07T02:01:44.030Z,0.00
2022-09-07T02:02:43.977Z,0.00
2022-09-07T02:03:43.939Z,0.00
2022-09-07T02:04:43.932Z,0.00
2022-09-07T02:05:43.915Z,0.00
2022-09-07T02:06:43.933Z,0.00
2022-09-07T02:07:43.922Z,0.00
2022-09-07T02:08:43.885Z,0.00
2022-09-07T02:09:43.888Z,0.00
2022-09-07T02:10:43.870Z,0.00
2022-09-07T02:11:43.875Z,0.00
2022-09-07T02:12:43.838Z,0.00
2022-09-07T02:13:43.837Z,0.00
2022-09-07T02:14:43.836Z,0.00
2022-09-07T02:15:44.846Z,0.00
2022-09-07T02:16:43.807Z,0.00
2022-09-07T02:17:43.836Z,0.00
2022-09-07T02:18:43.789Z,0.00
2022-09-07T02:19:43.780Z,0.00
2022-09-07T02:20:43.766Z,0.00
2022-09-07T02:21:43.761Z,0.00
2022-09-07T02:22:43.769Z,0.00
2022-09-07T02:23:43.758Z,0.00
2022-09-07T02:24:43.722Z,0.00
2022-09-07T02:25:43.712Z,0.00
2022-09-07T02:26:43.705Z,0.00
2022-09-07T02:27:43.727Z,0.00
2022-09-07T02:28:43.678Z,0.00
2022-09-07T02:29:43.671Z,0.00
2022-09-07T02:30:43.727Z,0.00
2022-09-07T02:31:43.662Z,0.00
2022-09-07T02:32:43.663Z,0.00
2022-09-07T02:33:43.627Z,0.00
2022-09-07T02:34:43.630Z,0.00
2022-09-07T02:35:43.620Z,0.00
2022-09-07T02:36:43.601Z,0.00
2022-09-07T02:37:43.600Z,0.00
2022-09-07T02:38:43.611Z,0.00
2022-09-07T02:39:43.639Z,0.00
2022-09-07T02:40:43.560Z,0.00
2022-09-07T02:41:43.557Z,0.00
2022-09-07T02:42:43.554Z,0.00
2022-09-07T02:43:43.553Z,0.00
2022-09-07T02:44:43.526Z,0.00
2022-09-07T02:45:43.533Z,0.00
2022-09-07T02:46:43.550Z,0.00
2022-09-07T02:47:43.511Z,0.00
2022-09-07T02:48:43.515Z,0.00
2022-09-07T02:49:43.486Z,0.00
2022-09-07T02:50:43.469Z,0.00
2022-09-07T02:51:43.455Z,0.00
2022-09-07T02:52:43.462Z,0.00
2022-09-07T02:53:43.466Z,0.00
2022-09-07T02:54:43.430Z,0.00
2022-09-07T02:55:43.417Z,0.00
2022-09-07T02:56:43.411Z,0.00
2022-09-07T02:57:43.400Z,0.00
2022-09-07T02:58:43.408Z,0.00
2022-09-07T02:59:43.379Z,0.00
2022-09-07T03:00:43.383Z,0.00
2022-09-07T03:01:43.409Z,0.00
2022-09-07T03:02:43.414Z,0.00
2022-09-07T03:03:43.333Z,0.00
2022-09-07T03:04:43.354Z,0.00
2022-09-07T03:05:43.314Z,0.00
2022-09-07T03:06:43.313Z,0.00
2022-09-07T03:07:44.363Z,0.00
2022-09-07T03:08:44.280Z,0.00
2022-09-07T03:09:43.296Z,0.00
2022-09-07T03:10:43.271Z,0.00
2022-09-07T03:11:43.255Z,0.00
2022-09-07T03:12:43.248Z,0.00
2022-09-07T03:13:43.255Z,0.00
2022-09-07T03:14:43.233Z,0.00
2022-09-07T03:15:43.272Z,0.00
2022-09-07T03:16:43.203Z,0.00
2022-09-07T03:17:43.197Z,0.00
2022-09-07T03:18:43.182Z,0.00
2022-09-07T03:19:43.169Z,0.00
2022-09-07T03:20:43.186Z,0.00
2022-09-07T03:21:43.147Z,0.00
2022-09-07T03:22:43.165Z,0.00
2022-09-07T03:23:43.147Z,0.00
2022-09-07T03:24:43.120Z,0.00
2022-09-07T03:25:43.124Z,0.00
2022-09-07T03:26:43.134Z,0.00
2022-09-07T03:27:43.093Z,0.00
2022-09-07T03:28:43.124Z,0.00
2022-09-07T03:29:43.071Z,0.00
2022-09-07T03:30:43.097Z,0.00
2022-09-07T03:31:43.060Z,0.00
2022-09-07T03:32:43.046Z,0.00
2022-09-07T03:33:43.076Z,0.00
2022-09-07T03:34:43.028Z,0.00
2022-09-07T03:35:43.018Z,0.00
2022-09-07T03:36:42.995Z,0.00
2022-09-07T03:37:42.995Z,0.00
2022-09-07T03:38:43.003Z,0.00
2022-09-07T03:39:43.002Z,0.00
2022-09-07T03:40:42.974Z,0.00
2022-09-07T03:41:42.981Z,0.00
2022-09-07T03:42:42.947Z,0.00
2022-09-07T03:43:42.947Z,0.00
2022-09-07T03:44:42.927Z,0.00
2022-09-07T03:45:42.975Z,0.00
2022-09-07T03:46:42.938Z,0.00
2022-09-07T03:47:42.904Z,0.00
2022-09-07T03:48:42.895Z,0.00
2022-09-07T03:49:42.886Z,0.00
2022-09-07T03:50:42.866Z,0.00
2022-09-07T03:51:42.888Z,0.00
2022-09-07T03:52:42.879Z,0.00
2022-09-07T03:53:42.844Z,0.00
2022-09-07T03:54:42.827Z,0.00
2022-09-07T03:55:42.820Z,0.00
2022-09-07T03:56:42.833Z,0.00
2022-09-07T03:57:42.803Z,0.00
2022-09-07T03:58:42.795Z,0.00
2022-09-07T03:59:42.782Z,0.00
2022-09-07T04:00:42.778Z,0.00
2022-09-07T04:01:42.949Z,0.00
2022-09-07T04:02:42.832Z,0.00
2022-09-07T04:03:42.741Z,0.00
2022-09-07T04:04:42.727Z,0.00
2022-09-07T04:05:42.725Z,0.00
2022-09-07T04:06:42.708Z,0.00
2022-09-07T04:07:42.732Z,0.00
2022-09-07T04:08:42.698Z,0.00
2022-09-07T04:09:42.700Z,0.00
2022-09-07T04:10:43.667Z,0.00
2022-09-07T04:11:42.661Z,0.00
2022-09-07T04:12:42.652Z,0.00
2022-09-07T04:13:42.695Z,0.00
2022-09-07T04:14:42.636Z,0.00
2022-09-07T04:15:42.617Z,0.00
2022-09-07T04:16:42.630Z,0.00
2022-09-07T04:17:42.616Z,0.00
2022-09-07T04:18:42.596Z,0.00
2022-09-07T04:19:42.602Z,0.00
2022-09-07T04:20:42.585Z,0.00
2022-09-07T04:21:42.574Z,0.00
2022-09-07T04:22:42.561Z,0.00
2022-09-07T04:23:42.552Z,0.00
2022-09-07T04:24:42.555Z,0.00
2022-09-07T04:25:42.635Z,0.00
2022-09-07T04:26:42.517Z,0.00
2022-09-07T04:27:42.536Z,0.00
2022-09-07T04:28:42.488Z,0.00
2022-09-07T04:29:42.486Z,0.00
2022-09-07T04:30:42.599Z,0.00
2022-09-07T04:31:42.465Z,0.00
2022-09-07T04:32:42.479Z,0.00
2022-09-07T04:33:42.447Z,0.00
2022-09-07T04:34:42.432Z,0.00
2022-09-07T04:35:42.431Z,0.00
2022-09-07T04:36:42.424Z,0.00
2022-09-07T04:37:43.400Z,0.00
2022-09-07T04:38:42.414Z,0.00
2022-09-07T04:39:42.408Z,0.00
2022-09-07T04:40:42.378Z,0.00
2022-09-07T04:41:42.399Z,0.00
2022-09-07T04:42:42.382Z,0.00
2022-09-07T04:43:42.350Z,0.00
2022-09-07T04:44:42.340Z,0.00
2022-09-07T04:45:42.372Z,0.00
2022-09-07T04:46:42.324Z,0.00
2022-09-07T04:47:42.360Z,0.00
2022-09-07T04:48:42.305Z,0.00
2022-09-07T04:49:42.286Z,0.00
2022-09-07T04:50:42.278Z,0.00
2022-09-07T04:51:42.268Z,0.00
2022-09-07T04:52:42.276Z,0.00
2022-09-07T04:53:42.291Z,0.00
2022-09-07T04:54:42.237Z,0.00
2022-09-07T04:55:42.222Z,0.00
2022-09-07T04:56:42.216Z,0.00
2022-09-07T04:57:42.205Z,5.62
2022-09-07T04:58:42.213Z,5.62
2022-09-07T04:59:42.198Z,5.62
2022-09-07T05:00:42.180Z,5.62
2022-09-07T05:01:42.248Z,5.62
2022-09-07T05:02:42.198Z,5.62
2022-09-07T05:03:42.153Z,5.62
2022-09-07T05:04:42.143Z,5.62
2022-09-07T05:05:42.135Z,5.62
2022-09-07T05:06:42.148Z,11.25
2022-09-07T05:07:42.116Z,11.25
2022-09-07T05:08:42.108Z,16.88
2022-09-07T05:09:42.096Z,16.88
2022-09-07T05:10:42.080Z,22.50
2022-09-07T05:11:42.088Z,28.12
2022-09-07T05:12:42.084Z,28.12
2022-09-07T05:13:42.086Z,33.75
2022-09-07T05:14:42.046Z,39.38
2022-09-07T05:15:42.045Z,45.00
2022-09-07T05:16:42.101Z,50.62
2022-09-07T05:17:42.064Z,61.88
2022-09-07T05:18:41.997Z,67.50
2022-09-07T05:19:41.998Z,78.75
2022-09-07T05:20:41.979Z,90.00
2022-09-07T05:21:42.977Z,95.62
2022-09-07T05:22:41.965Z,106.88
2022-09-07T05:23:41.981Z,123.75
2022-09-07T05:24:41.937Z,135.00
2022-09-07T05:25:41.925Z,151.88
2022-09-07T05:26:41.925Z,168.75
2022-09-07T05:27:41.911Z,185.62
2022-09-07T05:28:41.922Z,202.50
2022-09-07T05:31:42.881Z,264.38
2022-09-07T05:32:41.856Z,298.12
2022-09-07T05:34:43.844Z,348.75
2022-09-07T05:35:41.946Z,360.00
2022-09-07T05:36:41.845Z,376.88
2022-09-07T05:37:41.804Z,450.00
2022-09-07T05:38:41.882Z,601.88
2022-09-07T05:39:41.844Z,579.38
2022-09-07T05:40:41.796Z,742.50
2022-09-07T05:41:41.807Z,444.38
2022-09-07T05:42:41.761Z,427.50
2022-09-07T05:44:44.132Z,635.62
2022-09-07T05:45:42.782Z,472.50
2022-09-07T05:46:41.725Z,450.00
2022-09-07T05:47:41.709Z,450.00
2022-09-07T05:48:41.750Z,450.00
2022-09-07T05:49:41.700Z,461.25
2022-09-07T05:50:41.684Z,455.62
2022-09-07T05:51:41.666Z,466.88
2022-09-07T05:52:41.664Z,478.12
2022-09-07T05:53:41.644Z,478.12
2022-09-07T05:54:41.655Z,472.50
2022-09-07T05:55:41.647Z,483.75
2022-09-07T05:56:41.618Z,495.00
2022-09-07T05:57:41.612Z,500.62
2022-09-07T05:58:41.590Z,511.88
2022-09-07T05:59:41.600Z,562.50
2022-09-07T06:00:41.576Z,579.38
2022-09-07T06:01:41.582Z,630.00
2022-09-07T06:02:41.646Z,697.50
2022-09-07T06:03:41.540Z,742.50
2022-09-07T06:04:41.537Z,798.75
2022-09-07T06:05:41.537Z,1018.12
2022-09-07T06:06:41.522Z,1254.38
2022-09-07T06:07:41.551Z,1350.00
2022-09-07T06:08:41.497Z,1355.62
2022-09-07T06:11:42.466Z,1091.25
2022-09-07T06:12:44.413Z,1130.62
2022-09-07T06:13:41.459Z,1974.38
2022-09-07T06:14:41.450Z,1923.75
2022-09-07T06:15:41.459Z,1980.00
2022-09-07T06:16:41.450Z,1845.00
2022-09-07T06:17:41.426Z,1845.00
2022-09-07T06:18:41.405Z,1395.00
2022-09-07T06:19:41.429Z,1344.38
2022-09-07T06:20:41.406Z,1676.25
2022-09-07T06:21:41.380Z,1788.75
2022-09-07T06:22:41.368Z,1805.62
2022-09-07T06:23:41.347Z,1350.00
2022-09-07T06:24:41.383Z,1558.12
2022-09-07T06:25:41.391Z,1603.12
2022-09-07T06:26:41.331Z,2261.25
2022-09-07T06:27:41.320Z,2148.75
2022-09-07T06:28:41.302Z,2407.50
2022-09-07T06:29:41.295Z,1946.25
2022-09-07T06:30:41.351Z,2227.50
2022-09-07T06:33:42.262Z,2278.12
2022-09-07T06:34:41.251Z,2278.12
2022-09-07T06:35:42.251Z,2356.88
2022-09-07T06:36:41.222Z,2418.75
2022-09-07T06:37:41.226Z,2047.50
2022-09-07T06:38:41.220Z,2334.38
2022-09-07T06:39:41.325Z,3071.25
2022-09-07T06:40:41.189Z,3082.50
2022-09-07T06:42:43.172Z,2885.62
2022-09-07T06:43:45.512Z,2565.00
2022-09-07T06:44:42.178Z,3273.75
2022-09-07T06:45:41.214Z,3324.38
2022-09-07T06:47:41.146Z,2795.62
2022-09-07T06:48:44.248Z,2773.12
2022-09-07T06:49:41.099Z,2503.12
2022-09-07T06:50:41.123Z,2536.88
2022-09-07T06:51:41.090Z,2801.25
2022-09-07T06:53:44.425Z,2700.00
2022-09-07T06:55:41.046Z,2261.25
2022-09-07T06:56:41.046Z,2019.38
2022-09-07T06:57:41.048Z,2289.38
2022-09-07T06:58:42.516Z,2593.12
2022-09-07T06:59:42.024Z,2553.75
2022-09-07T07:00:41.038Z,2480.62
2022-09-07T07:01:41.004Z,2508.75
2022-09-07T07:02:40.996Z,2458.12
2022-09-07T07:03:41.051Z,2885.62
2022-09-07T07:04:41.499Z,2896.88
2022-09-07T07:05:40.959Z,2587.50
2022-09-07T07:06:40.951Z,2655.00
2022-09-07T07:07:40.957Z,2671.88
2022-09-07T07:08:40.957Z,3116.25
2022-09-07T07:09:40.959Z,3217.50
2022-09-07T07:10:40.907Z,3290.62
2022-09-07T07:11:40.903Z,3037.50
2022-09-07T07:13:26.126Z,2790.00
2022-09-07T07:14:26.869Z,2981.25
2022-09-07T07:15:27.276Z,2705.62
2022-09-07T07:16:27.334Z,2520.00
2022-09-07T07:17:27.240Z,2227.50
2022-09-07T07:18:27.229Z,2823.75
2022-09-07T07:19:27.224Z,3268.12
2022-09-07T07:20:27.237Z,2441.25
2022-09-07T07:21:31.342Z,2677.50
2022-09-07T07:22:46.605Z,3341.25
2022-09-07T07:23:28.237Z,3290.62
2022-09-07T07:24:27.178Z,3346.88
2022-09-07T07:25:27.167Z,3448.12
2022-09-07T07:26:27.154Z,3369.38
2022-09-07T07:29:29.127Z,3346.88
2022-09-07T07:30:28.119Z,3268.12
2022-09-07T07:31:27.142Z,3296.25
2022-09-07T07:32:27.113Z,3318.75
2022-09-07T07:33:27.204Z,3313.12
2022-09-07T07:34:27.135Z,3245.62
2022-09-07T07:35:27.079Z,3251.25
2022-09-07T07:36:27.074Z,3228.75
2022-09-07T07:37:28.284Z,3211.88
2022-09-07T07:40:30.978Z,3150.00
2022-09-07T07:42:28.020Z,3099.38
2022-09-07T07:43:27.040Z,3020.62
2022-09-07T07:44:27.027Z,3060.00
2022-09-07T07:45:56.872Z,2947.50
2022-09-07T07:46:28.021Z,2970.00
2022-09-07T07:47:26.974Z,2947.50
2022-09-07T07:48:26.980Z,2925.00
2022-09-07T07:49:27.001Z,2868.75
2022-09-07T07:50:34.622Z,2812.50
2022-09-07T07:51:29.045Z,2716.88
2022-09-07T07:53:43.382Z,2745.00
2022-09-07T07:54:28.941Z,2688.75
2022-09-07T07:56:27.912Z,2649.38
2022-09-07T07:57:26.898Z,2570.62
2022-09-07T07:58:26.883Z,2531.25
2022-09-07T07:59:26.881Z,2221.88
2022-09-07T08:00:37.696Z,1670.62
2022-09-07T08:01:28.877Z,1445.62
2022-09-07T08:02:27.893Z,1400.62
2022-09-07T08:03:26.935Z,1378.12
2022-09-07T08:04:26.832Z,1366.88
2022-09-07T08:05:26.834Z,1372.50
2022-09-07T08:06:26.843Z,1406.25
2022-09-07T08:07:26.826Z,1440.00
2022-09-07T08:08:26.796Z,1462.50
2022-09-07T08:09:26.793Z,1456.88
2022-09-07T08:10:26.781Z,1440.00
2022-09-07T08:11:26.778Z,1440.00
2022-09-07T08:12:29.748Z,1445.62
2022-09-07T08:13:26.811Z,1456.88
2022-09-07T08:14:26.746Z,1468.12
2022-09-07T08:15:26.728Z,1518.75
2022-09-07T08:16:27.815Z,1575.00
2022-09-07T08:17:26.737Z,1693.12
2022-09-07T08:18:26.702Z,1873.12
2022-09-07T08:19:26.695Z,2115.00
2022-09-07T08:20:26.698Z,2503.12
2022-09-07T08:21:26.700Z,2812.50
2022-09-07T08:22:26.665Z,2615.62
2022-09-07T08:23:26.665Z,2266.88
2022-09-07T08:24:26.654Z,2086.88
2022-09-07T08:25:26.641Z,2075.62
2022-09-07T08:26:26.644Z,1963.12
2022-09-07T08:27:26.646Z,1828.12
2022-09-07T08:28:26.629Z,1839.38
2022-09-07T08:29:27.229Z,1878.75
2022-09-07T08:30:26.623Z,1766.25
2022-09-07T08:31:26.610Z,1749.38
2022-09-07T08:32:26.581Z,1625.62
2022-09-07T08:33:26.619Z,1659.38
2022-09-07T08:34:26.576Z,1760.62
2022-09-07T08:35:27.580Z,1698.75
2022-09-07T08:36:26.550Z,1558.12
2022-09-07T08:37:26.559Z,1546.88
2022-09-07T08:38:26.534Z,1552.50
2022-09-07T08:39:26.588Z,1636.88
2022-09-07T08:40:26.544Z,1620.00
2022-09-07T08:41:26.511Z,1586.25
2022-09-07T08:42:26.496Z,1597.50
2022-09-07T08:43:26.488Z,1563.75
2022-09-07T08:44:26.481Z,1586.25
2022-09-07T08:45:26.469Z,1569.38
2022-09-07T08:46:26.527Z,1603.12
2022-09-07T08:47:26.448Z,1563.75
2022-09-07T08:48:27.439Z,1271.25
2022-09-07T08:49:26.426Z,1006.88
2022-09-07T08:50:26.421Z,1558.12
2022-09-07T08:51:26.422Z,1507.50
2022-09-07T08:52:26.415Z,1001.25
2022-09-07T08:53:26.442Z,1676.25
2022-09-07T08:54:26.385Z,1710.00
2022-09-07T08:55:26.384Z,1760.62
2022-09-07T08:56:30.244Z,1760.62
2022-09-07T08:57:26.357Z,1839.38
2022-09-07T08:58:48.240Z,1929.38
2022-09-07T08:59:28.341Z,1968.75
2022-09-07T09:00:26.334Z,2036.25
2022-09-07T09:01:34.116Z,1991.25
2022-09-07T09:02:30.082Z,2075.62
2022-09-07T09:03:29.039Z,1192.50
2022-09-07T09:04:27.944Z,725.62
2022-09-07T09:05:27.357Z,804.38
2022-09-07T09:06:26.382Z,877.50
2022-09-07T09:07:26.260Z,1175.62
2022-09-07T09:08:26.274Z,928.12
2022-09-07T09:09:26.245Z,916.88
2022-09-07T09:10:26.258Z,810.00
2022-09-07T09:11:26.232Z,821.25
2022-09-07T09:12:26.218Z,804.38
2022-09-07T09:13:26.255Z,810.00
2022-09-07T09:14:26.200Z,798.75
2022-09-07T09:15:26.204Z,798.75
2022-09-07T09:16:26.209Z,798.75
2022-09-07T09:17:26.188Z,787.50
2022-09-07T09:18:26.174Z,776.25
2022-09-07T09:19:26.145Z,770.62
2022-09-07T09:20:26.135Z,770.62
2022-09-07T09:21:26.156Z,770.62
2022-09-07T09:22:26.120Z,776.25
2022-09-07T09:23:26.113Z,793.12
2022-09-07T09:24:26.106Z,883.12
2022-09-07T09:25:26.107Z,838.12
2022-09-07T09:26:26.072Z,849.38
2022-09-07T09:27:26.090Z,866.25
2022-09-07T09:28:28.798Z,978.75
2022-09-07T09:29:26.062Z,1192.50
2022-09-07T09:30:26.058Z,1018.12
2022-09-07T09:31:26.186Z,945.00
2022-09-07T09:32:26.055Z,922.50
2022-09-07T09:33:26.056Z,911.25
2022-09-07T09:34:29.364Z,1108.12
2022-09-07T09:35:28.014Z,1023.75
2022-09-07T09:36:26.004Z,1215.00
2022-09-07T09:37:26.045Z,1186.88
2022-09-07T09:38:27.027Z,1237.50
2022-09-07T09:39:26.053Z,1243.12
2022-09-07T09:40:25.993Z,928.12
2022-09-07T09:41:25.968Z,883.12
2022-09-07T09:42:25.944Z,1198.12
2022-09-07T09:43:25.934Z,984.38
2022-09-07T09:44:25.927Z,1040.62
2022-09-07T09:45:25.910Z,765.00
2022-09-07T09:46:25.972Z,1147.50
2022-09-07T09:47:33.302Z,1108.12
2022-09-07T09:48:27.958Z,1068.75
2022-09-07T09:49:26.878Z,1029.38
2022-09-07T09:52:29.889Z,928.12
2022-09-07T09:53:26.850Z,787.50
2022-09-07T09:54:25.833Z,984.38
2022-09-07T09:55:41.157Z,956.25
2022-09-07T09:56:27.849Z,956.25
2022-09-07T09:57:25.801Z,961.88
2022-09-07T10:00:29.844Z,894.38
2022-09-07T10:01:28.021Z,849.38
2022-09-07T10:04:27.735Z,815.62
2022-09-07T10:05:25.719Z,843.75
2022-09-07T10:06:25.729Z,708.75
2022-09-07T10:07:25.742Z,770.62
2022-09-07T10:08:25.732Z,826.88
2022-09-07T10:09:25.690Z,821.25
2022-09-07T10:10:25.927Z,843.75
2022-09-07T10:12:05.032Z,843.75
2022-09-07T10:12:27.677Z,821.25
2022-09-07T10:13:25.654Z,781.88
2022-09-07T10:14:25.676Z,759.38
2022-09-07T10:15:25.628Z,714.38
2022-09-07T10:16:25.695Z,770.62
2022-09-07T10:17:25.617Z,765.00
2022-09-07T10:18:25.691Z,765.00
2022-09-07T10:19:25.600Z,703.12
2022-09-07T10:20:25.591Z,585.00
2022-09-07T10:21:25.581Z,691.88
2022-09-07T10:22:25.567Z,798.75
2022-09-07T10:23:25.574Z,815.62
2022-09-07T10:24:25.554Z,798.75
2022-09-07T10:25:25.575Z,793.12
2022-09-07T10:26:25.530Z,793.12
2022-09-07T10:27:25.529Z,810.00
2022-09-07T10:29:06.010Z,691.88
2022-09-07T10:29:25.513Z,781.88
2022-09-07T10:30:25.521Z,776.25
2022-09-07T10:31:25.638Z,770.62
2022-09-07T10:32:25.466Z,753.75
2022-09-07T10:33:25.469Z,725.62
2022-09-07T10:34:26.033Z,708.75
2022-09-07T10:35:26.451Z,686.25
2022-09-07T10:36:25.449Z,686.25
2022-09-07T10:37:25.433Z,697.50
2022-09-07T10:38:25.427Z,708.75
2022-09-07T10:39:25.575Z,714.38
2022-09-07T10:40:25.446Z,596.25
2022-09-07T10:41:25.409Z,495.00
2022-09-07T10:42:25.386Z,731.25
2022-09-07T10:43:25.400Z,691.88
2022-09-07T10:44:25.371Z,703.12
2022-09-07T10:45:25.358Z,697.50
2022-09-07T10:47:27.382Z,680.62
2022-09-07T10:48:25.383Z,669.38
2022-09-07T10:49:25.316Z,551.25
2022-09-07T10:50:25.316Z,438.75
2022-09-07T10:51:25.307Z,421.88
2022-09-07T10:52:25.291Z,641.25
2022-09-07T10:53:40.935Z,444.38
2022-09-07T10:54:30.377Z,450.00
2022-09-07T10:55:26.292Z,455.62
2022-09-07T10:56:25.250Z,455.62
2022-09-07T10:57:25.237Z,635.62
2022-09-07T10:59:01.428Z,646.88
2022-09-07T10:59:26.549Z,635.62
2022-09-07T11:00:25.237Z,624.38
2022-09-07T11:01:25.280Z,624.38
2022-09-07T11:02:25.242Z,433.12
2022-09-07T11:03:35.257Z,416.25
2022-09-07T11:04:27.173Z,601.88
2022-09-07T11:05:27.658Z,596.25
2022-09-07T11:06:25.172Z,601.88
2022-09-07T11:07:25.144Z,613.12
2022-09-07T11:08:25.215Z,624.38
2022-09-07T11:09:25.131Z,585.00
2022-09-07T11:10:25.123Z,444.38
2022-09-07T11:12:00.659Z,624.38
2022-09-07T11:12:28.232Z,630.00
2022-09-07T11:13:25.093Z,461.25
2022-09-07T11:14:25.088Z,461.25
2022-09-07T11:15:25.084Z,523.12
2022-09-07T11:16:53.391Z,669.38
2022-09-07T11:17:27.071Z,714.38
2022-09-07T11:18:25.069Z,731.25
2022-09-07T11:19:40.256Z,540.00
2022-09-07T11:20:27.038Z,562.50
2022-09-07T11:22:27.013Z,506.25
2022-09-07T11:23:25.011Z,478.12
2022-09-07T11:24:24.999Z,461.25
2022-09-07T11:25:32.067Z,495.00
2022-09-07T11:26:26.998Z,646.88
2022-09-07T11:27:24.968Z,630.00
2022-09-07T11:28:24.952Z,495.00
2022-09-07T11:29:32.153Z,483.75
2022-09-07T11:30:26.934Z,607.50
2022-09-07T11:31:25.057Z,607.50
2022-09-07T11:32:24.914Z,517.50
2022-09-07T11:33:24.910Z,624.38
2022-09-07T11:34:25.048Z,607.50
2022-09-07T11:35:24.910Z,601.88
2022-09-07T11:36:24.913Z,596.25
2022-09-07T11:37:24.870Z,455.62
2022-09-07T11:38:24.864Z,573.75
2022-09-07T11:39:24.885Z,596.25
2022-09-07T11:40:24.868Z,613.12
2022-09-07T11:41:24.827Z,624.38
2022-09-07T11:43:25.842Z,646.88
2022-09-07T11:44:24.821Z,663.75
2022-09-07T11:45:24.816Z,663.75
2022-09-07T11:46:24.847Z,663.75
2022-09-07T11:47:24.794Z,646.88
2022-09-07T11:48:30.467Z,624.38
2022-09-07T11:49:25.767Z,613.12
2022-09-07T11:50:24.743Z,607.50
2022-09-07T11:51:24.748Z,613.12
2022-09-07T11:52:24.731Z,618.75
2022-09-07T11:53:24.709Z,618.75
2022-09-07T11:54:24.710Z,607.50
2022-09-07T11:55:24.712Z,596.25
2022-09-07T11:56:24.691Z,596.25
2022-09-07T11:57:24.676Z,596.25
2022-09-07T11:58:24.662Z,590.62
2022-09-07T11:59:24.657Z,540.00
2022-09-07T12:00:24.677Z,601.88
2022-09-07T12:01:24.667Z,596.25
2022-09-07T12:02:42.144Z,601.88
2022-09-07T12:03:26.668Z,601.88
2022-09-07T12:04:24.757Z,601.88
2022-09-07T12:05:24.598Z,624.38
2022-09-07T12:06:24.595Z,624.38
2022-09-07T12:07:24.582Z,472.50
2022-09-07T12:08:24.583Z,483.75
2022-09-07T12:09:24.585Z,624.38
2022-09-07T12:10:24.572Z,635.62
2022-09-07T12:11:24.541Z,618.75
2022-09-07T12:12:24.557Z,652.50
2022-09-07T12:13:24.542Z,646.88
2022-09-07T12:14:24.516Z,511.88
2022-09-07T12:15:24.581Z,613.12
2022-09-07T12:16:24.509Z,427.50
2022-09-07T12:17:24.491Z,551.25
2022-09-07T12:18:24.507Z,438.75
2022-09-07T12:19:24.528Z,438.75
2022-09-07T12:20:24.459Z,450.00
2022-09-07T12:21:24.453Z,613.12
2022-09-07T12:22:24.433Z,618.75
2022-09-07T12:23:24.432Z,495.00
2022-09-07T12:24:24.441Z,534.38
2022-09-07T12:25:24.412Z,517.50
2022-09-07T12:26:24.416Z,433.12
2022-09-07T12:27:24.397Z,427.50
2022-09-07T12:28:24.385Z,438.75
2022-09-07T12:29:24.378Z,624.38
2022-09-07T12:30:24.387Z,427.50
2022-09-07T12:31:27.384Z,421.88
2022-09-07T12:33:25.347Z,596.25
2022-09-07T12:34:24.329Z,551.25
2022-09-07T12:35:24.340Z,427.50
2022-09-07T12:36:24.308Z,438.75
2022-09-07T12:37:24.308Z,416.25
2022-09-07T12:38:24.298Z,399.38
2022-09-07T12:39:24.300Z,399.38
2022-09-07T12:40:24.292Z,410.62
2022-09-07T12:41:24.288Z,573.75
2022-09-07T12:42:32.223Z,596.25
2022-09-07T12:43:27.677Z,438.75
2022-09-07T12:44:28.639Z,444.38
2022-09-07T12:45:26.226Z,466.88
2022-09-07T12:46:24.270Z,495.00
2022-09-07T12:47:24.214Z,511.88
2022-09-07T12:48:24.200Z,506.25
2022-09-07T12:49:24.202Z,500.62
2022-09-07T12:50:24.178Z,506.25
2022-09-07T12:52:26.177Z,545.62
2022-09-07T12:53:24.151Z,540.00
2022-09-07T12:54:24.146Z,703.12
2022-09-07T12:55:28.557Z,691.88
2022-09-07T12:56:25.136Z,680.62
2022-09-07T12:57:31.408Z,658.12
2022-09-07T12:58:26.112Z,635.62
2022-09-07T12:59:24.096Z,613.12
2022-09-07T13:00:24.110Z,601.88
2022-09-07T13:01:24.187Z,596.25
2022-09-07T13:02:24.254Z,590.62
2022-09-07T13:03:52.711Z,590.62
2022-09-07T13:04:26.064Z,590.62
2022-09-07T13:05:24.043Z,528.75
2022-09-07T13:07:25.048Z,421.88
2022-09-07T13:08:24.018Z,416.25
2022-09-07T13:09:24.005Z,455.62
2022-09-07T13:10:23.998Z,478.12
2022-09-07T13:11:23.984Z,410.62
2022-09-07T13:14:26.110Z,534.38
2022-09-07T13:15:24.339Z,388.12
2022-09-07T13:16:24.982Z,393.75